sensor_id;sensor_type;location;lat;lon;timestamp;temperature;humidity
14397;DHT22;50653;47.810;13.022;2023-12-20T00:00:57;4.60;99.90
14397;DHT22;50653;47.810;13.022;2023-12-20T00:03:23;4.60;99.90
14397;DHT22;50653;47.810;13.022;2023-12-20T00:05:49;4.40;99.90
14397;DHT22;50653;47.810;13.022;2023-12-20T00:08:16;4.50;99.90
14397;DHT22;50653;47.810;13.022;2023-12-20T00:10:42;4.40;99.90
14397;DHT22;50653;47.810;13.022;2023-12-20T00:13:08;4.50;99.90
14397;DHT22;50653;47.810;13.022;2023-12-20T00:15:34;4.30;99.90
14397;DHT22;50653;47.810;13.022;2023-12-20T00:18:00;4.20;99.90
14397;DHT22;50653;47.810;13.022;2023-12-20T00:20:26;4.20;99.90
14397;DHT22;50653;47.810;13.022;2023-12-20T00:22:55;4.30;99.90
14397;DHT22;50653;47.810;13.022;2023-12-20T00:25:21;4.20;99.90
14397;DHT22;50653;47.810;13.022;2023-12-20T00:27:47;3.90;99.90
14397;DHT22;50653;47.810;13.022;2023-12-20T00:30:13;3.90;99.90
14397;DHT22;50653;47.810;13.022;2023-12-20T00:32:38;4.00;99.90
14397;DHT22;50653;47.810;13.022;2023-12-20T00:35:04;3.90;99.90
14397;DHT22;50653;47.810;13.022;2023-12-20T00:37:30;3.80;99.90
14397;DHT22;50653;47.810;13.022;2023-12-20T00:39:56;3.80;99.90
14397;DHT22;50653;47.810;13.022;2023-12-20T00:42:21;3.80;99.90
14397;DHT22;50653;47.810;13.022;2023-12-20T00:44:47;3.60;99.90
14397;DHT22;50653;47.810;13.022;2023-12-20T00:47:13;3.70;99.90
14397;DHT22;50653;47.810;13.022;2023-12-20T00:49:38;3.70;99.90
14397;DHT22;50653;47.810;13.022;2023-12-20T00:52:04;3.70;99.90
14397;DHT22;50653;47.810;13.022;2023-12-20T00:54:30;3.80;99.90
14397;DHT22;50653;47.810;13.022;2023-12-20T00:56:56;3.90;99.90
14397;DHT22;50653;47.810;13.022;2023-12-20T00:59:22;3.80;99.90
14397;DHT22;50653;47.810;13.022;2023-12-20T01:01:47;3.70;99.90
14397;DHT22;50653;47.810;13.022;2023-12-20T01:04:13;3.70;99.90
14397;DHT22;50653;47.810;13.022;2023-12-20T01:06:39;3.70;99.90
14397;DHT22;50653;47.810;13.022;2023-12-20T01:09:04;3.70;99.90
14397;DHT22;50653;47.810;13.022;2023-12-20T01:11:30;3.60;99.90
14397;DHT22;50653;47.810;13.022;2023-12-20T01:13:56;3.60;99.90
14397;DHT22;50653;47.810;13.022;2023-12-20T01:16:21;3.60;99.90
14397;DHT22;50653;47.810;13.022;2023-12-20T01:18:47;3.60;99.90
14397;DHT22;50653;47.810;13.022;2023-12-20T01:21:13;3.50;99.90
14397;DHT22;50653;47.810;13.022;2023-12-20T01:23:38;3.70;99.90
14397;DHT22;50653;47.810;13.022;2023-12-20T01:26:04;3.80;99.90
14397;DHT22;50653;47.810;13.022;2023-12-20T01:28:31;3.80;99.90
14397;DHT22;50653;47.810;13.022;2023-12-20T01:30:57;3.70;99.90
14397;DHT22;50653;47.810;13.022;2023-12-20T01:33:23;3.90;99.90
14397;DHT22;50653;47.810;13.022;2023-12-20T01:35:49;3.90;99.90
14397;DHT22;50653;47.810;13.022;2023-12-20T01:38:15;3.80;99.90
14397;DHT22;50653;47.810;13.022;2023-12-20T01:40:44;3.90;99.90
14397;DHT22;50653;47.810;13.022;2023-12-20T01:43:10;3.80;99.90
14397;DHT22;50653;47.810;13.022;2023-12-20T01:45:37;3.70;99.90
14397;DHT22;50653;47.810;13.022;2023-12-20T01:48:05;3.70;99.90
14397;DHT22;50653;47.810;13.022;2023-12-20T01:50:31;3.70;99.90
14397;DHT22;50653;47.810;13.022;2023-12-20T01:52:59;3.80;99.90
14397;DHT22;50653;47.810;13.022;2023-12-20T01:55:27;3.90;99.90
14397;DHT22;50653;47.810;13.022;2023-12-20T01:57:55;3.90;99.90
14397;DHT22;50653;47.810;13.022;2023-12-20T02:00:21;4.00;99.90
14397;DHT22;50653;47.810;13.022;2023-12-20T02:02:50;3.90;99.90
14397;DHT22;50653;47.810;13.022;2023-12-20T02:05:18;3.90;99.90
14397;DHT22;50653;47.810;13.022;2023-12-20T02:07:44;3.90;99.90
14397;DHT22;50653;47.810;13.022;2023-12-20T02:10:09;3.90;99.90
14397;DHT22;50653;47.810;13.022;2023-12-20T02:12:35;3.90;99.90
14397;DHT22;50653;47.810;13.022;2023-12-20T02:15:01;3.90;99.90
14397;DHT22;50653;47.810;13.022;2023-12-20T02:17:27;3.90;99.90
14397;DHT22;50653;47.810;13.022;2023-12-20T02:19:53;3.80;99.90
14397;DHT22;50653;47.810;13.022;2023-12-20T02:22:19;3.80;99.90
14397;DHT22;50653;47.810;13.022;2023-12-20T02:24:45;3.70;99.90
14397;DHT22;50653;47.810;13.022;2023-12-20T02:27:11;3.70;99.90
14397;DHT22;50653;47.810;13.022;2023-12-20T02:29:37;3.70;99.90
14397;DHT22;50653;47.810;13.022;2023-12-20T02:32:03;3.80;99.90
14397;DHT22;50653;47.810;13.022;2023-12-20T02:34:29;3.80;99.90
14397;DHT22;50653;47.810;13.022;2023-12-20T02:36:55;3.90;99.90
14397;DHT22;50653;47.810;13.022;2023-12-20T02:39:21;3.80;99.90
14397;DHT22;50653;47.810;13.022;2023-12-20T02:41:48;3.80;99.90
14397;DHT22;50653;47.810;13.022;2023-12-20T02:44:14;3.60;99.90
14397;DHT22;50653;47.810;13.022;2023-12-20T02:46:39;3.70;99.90
14397;DHT22;50653;47.810;13.022;2023-12-20T02:49:06;3.80;99.90
14397;DHT22;50653;47.810;13.022;2023-12-20T02:51:32;3.90;99.90
14397;DHT22;50653;47.810;13.022;2023-12-20T02:53:57;3.80;99.90
14397;DHT22;50653;47.810;13.022;2023-12-20T02:56:23;3.90;99.90
14397;DHT22;50653;47.810;13.022;2023-12-20T02:58:49;4.00;99.90
14397;DHT22;50653;47.810;13.022;2023-12-20T03:01:14;3.90;99.90
14397;DHT22;50653;47.810;13.022;2023-12-20T03:03:40;3.90;99.90
14397;DHT22;50653;47.810;13.022;2023-12-20T03:06:06;3.80;99.90
14397;DHT22;50653;47.810;13.022;2023-12-20T03:08:31;3.90;99.90
14397;DHT22;50653;47.810;13.022;2023-12-20T03:10:59;3.90;99.90
14397;DHT22;50653;47.810;13.022;2023-12-20T03:13:25;3.90;99.90
14397;DHT22;50653;47.810;13.022;2023-12-20T03:15:50;3.90;99.90
14397;DHT22;50653;47.810;13.022;2023-12-20T03:18:16;4.00;99.90
14397;DHT22;50653;47.810;13.022;2023-12-20T03:20:43;3.90;99.90
14397;DHT22;50653;47.810;13.022;2023-12-20T03:23:09;4.00;99.90
14397;DHT22;50653;47.810;13.022;2023-12-20T03:25:35;4.00;99.90
14397;DHT22;50653;47.810;13.022;2023-12-20T03:28:00;4.00;99.90
14397;DHT22;50653;47.810;13.022;2023-12-20T03:30:26;4.10;99.90
14397;DHT22;50653;47.810;13.022;2023-12-20T03:32:52;4.10;99.90
14397;DHT22;50653;47.810;13.022;2023-12-20T03:35:17;4.10;99.90
14397;DHT22;50653;47.810;13.022;2023-12-20T03:37:43;4.10;99.90
14397;DHT22;50653;47.810;13.022;2023-12-20T03:40:11;4.20;99.90
14397;DHT22;50653;47.810;13.022;2023-12-20T03:42:36;4.20;99.90
14397;DHT22;50653;47.810;13.022;2023-12-20T03:45:02;4.20;99.90
14397;DHT22;50653;47.810;13.022;2023-12-20T03:47:28;4.20;99.90
14397;DHT22;50653;47.810;13.022;2023-12-20T03:49:53;4.30;99.90
14397;DHT22;50653;47.810;13.022;2023-12-20T03:52:19;4.30;99.90
14397;DHT22;50653;47.810;13.022;2023-12-20T03:54:45;4.20;99.90
14397;DHT22;50653;47.810;13.022;2023-12-20T03:57:10;4.30;99.90
14397;DHT22;50653;47.810;13.022;2023-12-20T03:59:37;4.30;99.90
14397;DHT22;50653;47.810;13.022;2023-12-20T04:02:03;4.30;99.90
14397;DHT22;50653;47.810;13.022;2023-12-20T04:04:29;4.30;99.90
14397;DHT22;50653;47.810;13.022;2023-12-20T04:06:55;4.30;99.90
14397;DHT22;50653;47.810;13.022;2023-12-20T04:09:20;4.50;99.90
14397;DHT22;50653;47.810;13.022;2023-12-20T04:11:46;4.40;99.90
14397;DHT22;50653;47.810;13.022;2023-12-20T04:14:12;4.40;99.90
14397;DHT22;50653;47.810;13.022;2023-12-20T04:16:37;4.40;99.90
14397;DHT22;50653;47.810;13.022;2023-12-20T04:19:04;4.40;99.90
14397;DHT22;50653;47.810;13.022;2023-12-20T04:21:30;4.40;99.90
14397;DHT22;50653;47.810;13.022;2023-12-20T04:23:56;4.40;99.90
14397;DHT22;50653;47.810;13.022;2023-12-20T04:26:21;4.40;99.90
14397;DHT22;50653;47.810;13.022;2023-12-20T04:28:47;4.40;99.90
14397;DHT22;50653;47.810;13.022;2023-12-20T04:31:13;4.40;99.90
14397;DHT22;50653;47.810;13.022;2023-12-20T04:33:39;4.40;99.90
14397;DHT22;50653;47.810;13.022;2023-12-20T04:36:05;4.40;99.90
14397;DHT22;50653;47.810;13.022;2023-12-20T04:38:30;4.50;99.90
14397;DHT22;50653;47.810;13.022;2023-12-20T04:40:56;4.40;99.90
14397;DHT22;50653;47.810;13.022;2023-12-20T04:43:22;4.40;99.90
14397;DHT22;50653;47.810;13.022;2023-12-20T04:45:48;4.50;99.90
14397;DHT22;50653;47.810;13.022;2023-12-20T04:48:14;4.50;99.90
14397;DHT22;50653;47.810;13.022;2023-12-20T04:50:40;4.50;99.90
14397;DHT22;50653;47.810;13.022;2023-12-20T04:53:05;4.50;99.90
14397;DHT22;50653;47.810;13.022;2023-12-20T04:55:31;4.50;99.90
14397;DHT22;50653;47.810;13.022;2023-12-20T04:57:57;4.50;99.90
14397;DHT22;50653;47.810;13.022;2023-12-20T05:00:22;4.50;99.90
14397;DHT22;50653;47.810;13.022;2023-12-20T05:02:48;4.60;99.90
14397;DHT22;50653;47.810;13.022;2023-12-20T05:05:14;4.50;99.90
14397;DHT22;50653;47.810;13.022;2023-12-20T05:07:40;4.50;99.90
14397;DHT22;50653;47.810;13.022;2023-12-20T05:10:07;4.60;99.90
14397;DHT22;50653;47.810;13.022;2023-12-20T05:12:35;4.50;99.90
14397;DHT22;50653;47.810;13.022;2023-12-20T05:15:01;4.70;99.90
14397;DHT22;50653;47.810;13.022;2023-12-20T05:17:27;4.70;99.90
14397;DHT22;50653;47.810;13.022;2023-12-20T05:19:52;4.80;99.90
14397;DHT22;50653;47.810;13.022;2023-12-20T05:22:21;4.80;99.90
14397;DHT22;50653;47.810;13.022;2023-12-20T05:24:47;4.80;99.90
14397;DHT22;50653;47.810;13.022;2023-12-20T05:27:12;4.80;99.90
14397;DHT22;50653;47.810;13.022;2023-12-20T05:29:38;4.80;99.90
14397;DHT22;50653;47.810;13.022;2023-12-20T05:32:04;4.80;99.90
14397;DHT22;50653;47.810;13.022;2023-12-20T05:34:30;4.80;99.90
14397;DHT22;50653;47.810;13.022;2023-12-20T05:36:57;5.00;99.90
14397;DHT22;50653;47.810;13.022;2023-12-20T05:39:23;5.00;99.90
14397;DHT22;50653;47.810;13.022;2023-12-20T05:41:48;5.00;99.90
14397;DHT22;50653;47.810;13.022;2023-12-20T05:44:14;5.00;99.90
14397;DHT22;50653;47.810;13.022;2023-12-20T05:46:40;5.00;99.90
14397;DHT22;50653;47.810;13.022;2023-12-20T05:49:06;5.00;99.90
14397;DHT22;50653;47.810;13.022;2023-12-20T05:51:32;5.10;99.90
14397;DHT22;50653;47.810;13.022;2023-12-20T05:53:58;5.20;99.90
14397;DHT22;50653;47.810;13.022;2023-12-20T05:56:24;5.20;99.90
14397;DHT22;50653;47.810;13.022;2023-12-20T05:58:50;5.20;99.90
14397;DHT22;50653;47.810;13.022;2023-12-20T06:01:16;5.30;99.90
14397;DHT22;50653;47.810;13.022;2023-12-20T06:03:44;5.40;99.90
14397;DHT22;50653;47.810;13.022;2023-12-20T06:06:11;5.30;99.90
14397;DHT22;50653;47.810;13.022;2023-12-20T06:08:38;5.40;99.90
14397;DHT22;50653;47.810;13.022;2023-12-20T06:11:04;5.40;99.90
14397;DHT22;50653;47.810;13.022;2023-12-20T06:13:31;5.40;99.90
14397;DHT22;50653;47.810;13.022;2023-12-20T06:15:57;5.40;99.90
14397;DHT22;50653;47.810;13.022;2023-12-20T06:18:23;5.40;99.90
14397;DHT22;50653;47.810;13.022;2023-12-20T06:20:49;5.40;99.90
14397;DHT22;50653;47.810;13.022;2023-12-20T06:23:15;5.40;99.90
14397;DHT22;50653;47.810;13.022;2023-12-20T06:25:41;5.40;99.90
14397;DHT22;50653;47.810;13.022;2023-12-20T06:28:07;5.30;99.90
14397;DHT22;50653;47.810;13.022;2023-12-20T06:30:35;5.30;99.90
14397;DHT22;50653;47.810;13.022;2023-12-20T06:33:01;5.30;99.90
14397;DHT22;50653;47.810;13.022;2023-12-20T06:35:27;5.40;99.90
14397;DHT22;50653;47.810;13.022;2023-12-20T06:37:53;5.40;99.90
14397;DHT22;50653;47.810;13.022;2023-12-20T06:40:19;5.40;99.90
14397;DHT22;50653;47.810;13.022;2023-12-20T06:42:46;5.40;99.90
14397;DHT22;50653;47.810;13.022;2023-12-20T06:45:11;5.30;99.90
14397;DHT22;50653;47.810;13.022;2023-12-20T06:47:38;5.30;99.90
14397;DHT22;50653;47.810;13.022;2023-12-20T06:50:04;5.30;99.90
14397;DHT22;50653;47.810;13.022;2023-12-20T06:52:30;5.30;99.90
14397;DHT22;50653;47.810;13.022;2023-12-20T06:54:55;5.20;99.90
14397;DHT22;50653;47.810;13.022;2023-12-20T06:57:21;5.10;99.90
14397;DHT22;50653;47.810;13.022;2023-12-20T06:59:47;5.20;99.90
14397;DHT22;50653;47.810;13.022;2023-12-20T07:02:12;5.20;99.90
14397;DHT22;50653;47.810;13.022;2023-12-20T07:04:41;5.20;99.90
14397;DHT22;50653;47.810;13.022;2023-12-20T07:07:07;5.20;99.90
14397;DHT22;50653;47.810;13.022;2023-12-20T07:09:33;5.20;99.90
14397;DHT22;50653;47.810;13.022;2023-12-20T07:11:59;5.30;99.90
14397;DHT22;50653;47.810;13.022;2023-12-20T07:14:25;5.30;99.90
14397;DHT22;50653;47.810;13.022;2023-12-20T07:16:50;5.40;99.90
14397;DHT22;50653;47.810;13.022;2023-12-20T07:19:16;5.70;99.90
14397;DHT22;50653;47.810;13.022;2023-12-20T07:21:42;6.00;99.90
14397;DHT22;50653;47.810;13.022;2023-12-20T07:24:08;6.10;99.90
14397;DHT22;50653;47.810;13.022;2023-12-20T07:26:34;6.00;99.90
14397;DHT22;50653;47.810;13.022;2023-12-20T07:29:03;6.10;99.90
14397;DHT22;50653;47.810;13.022;2023-12-20T07:31:29;6.20;99.90
14397;DHT22;50653;47.810;13.022;2023-12-20T07:33:56;6.20;99.90
14397;DHT22;50653;47.810;13.022;2023-12-20T07:36:21;6.20;99.90
14397;DHT22;50653;47.810;13.022;2023-12-20T07:38:47;6.30;99.90
14397;DHT22;50653;47.810;13.022;2023-12-20T07:41:13;6.30;99.90
14397;DHT22;50653;47.810;13.022;2023-12-20T07:43:41;6.30;99.90
14397;DHT22;50653;47.810;13.022;2023-12-20T07:46:08;6.30;99.90
14397;DHT22;50653;47.810;13.022;2023-12-20T07:48:37;6.30;99.90
14397;DHT22;50653;47.810;13.022;2023-12-20T07:51:04;6.30;99.90
14397;DHT22;50653;47.810;13.022;2023-12-20T07:53:29;6.30;99.90
14397;DHT22;50653;47.810;13.022;2023-12-20T07:55:55;6.30;99.90
14397;DHT22;50653;47.810;13.022;2023-12-20T07:58:21;6.30;99.90
14397;DHT22;50653;47.810;13.022;2023-12-20T08:00:48;6.30;99.90
14397;DHT22;50653;47.810;13.022;2023-12-20T08:03:13;6.30;99.90
14397;DHT22;50653;47.810;13.022;2023-12-20T08:05:39;6.40;99.90
14397;DHT22;50653;47.810;13.022;2023-12-20T08:08:08;6.30;99.90
14397;DHT22;50653;47.810;13.022;2023-12-20T08:10:33;6.30;99.90
14397;DHT22;50653;47.810;13.022;2023-12-20T08:12:59;6.30;99.90
14397;DHT22;50653;47.810;13.022;2023-12-20T08:15:25;6.30;99.90
14397;DHT22;50653;47.810;13.022;2023-12-20T08:17:50;6.30;99.90
14397;DHT22;50653;47.810;13.022;2023-12-20T08:20:17;6.30;99.90
14397;DHT22;50653;47.810;13.022;2023-12-20T08:22:42;6.30;99.90
14397;DHT22;50653;47.810;13.022;2023-12-20T08:25:08;6.40;99.90
14397;DHT22;50653;47.810;13.022;2023-12-20T08:27:39;6.40;99.90
14397;DHT22;50653;47.810;13.022;2023-12-20T08:30:05;6.40;99.90
14397;DHT22;50653;47.810;13.022;2023-12-20T08:32:33;6.40;99.90
14397;DHT22;50653;47.810;13.022;2023-12-20T08:34:59;6.30;99.90
14397;DHT22;50653;47.810;13.022;2023-12-20T08:37:25;6.40;99.90
14397;DHT22;50653;47.810;13.022;2023-12-20T08:39:51;6.30;99.90
14397;DHT22;50653;47.810;13.022;2023-12-20T08:42:16;6.40;99.90
14397;DHT22;50653;47.810;13.022;2023-12-20T08:44:42;6.40;99.90
14397;DHT22;50653;47.810;13.022;2023-12-20T08:47:08;6.40;99.90
14397;DHT22;50653;47.810;13.022;2023-12-20T08:49:34;6.40;99.90
14397;DHT22;50653;47.810;13.022;2023-12-20T08:51:59;6.40;99.90
14397;DHT22;50653;47.810;13.022;2023-12-20T08:54:25;6.40;99.90
14397;DHT22;50653;47.810;13.022;2023-12-20T08:56:51;6.40;99.90
14397;DHT22;50653;47.810;13.022;2023-12-20T08:59:16;6.40;99.90
14397;DHT22;50653;47.810;13.022;2023-12-20T09:01:44;6.40;99.90
14397;DHT22;50653;47.810;13.022;2023-12-20T09:04:09;6.40;99.90
14397;DHT22;50653;47.810;13.022;2023-12-20T09:06:35;6.40;99.90
14397;DHT22;50653;47.810;13.022;2023-12-20T09:09:01;6.40;99.90
14397;DHT22;50653;47.810;13.022;2023-12-20T09:11:26;6.40;99.90
14397;DHT22;50653;47.810;13.022;2023-12-20T09:13:52;6.40;99.90
14397;DHT22;50653;47.810;13.022;2023-12-20T09:16:18;6.30;99.90
14397;DHT22;50653;47.810;13.022;2023-12-20T09:18:43;6.30;99.90
14397;DHT22;50653;47.810;13.022;2023-12-20T09:21:09;6.40;99.90
14397;DHT22;50653;47.810;13.022;2023-12-20T09:23:35;6.30;99.90
14397;DHT22;50653;47.810;13.022;2023-12-20T09:26:02;6.30;99.90
14397;DHT22;50653;47.810;13.022;2023-12-20T09:28:28;6.30;99.90
14397;DHT22;50653;47.810;13.022;2023-12-20T09:30:54;6.40;99.90
14397;DHT22;50653;47.810;13.022;2023-12-20T09:33:19;6.40;99.90
14397;DHT22;50653;47.810;13.022;2023-12-20T09:35:45;6.40;99.90
14397;DHT22;50653;47.810;13.022;2023-12-20T09:38:11;6.40;99.90
14397;DHT22;50653;47.810;13.022;2023-12-20T09:40:41;6.40;99.90
14397;DHT22;50653;47.810;13.022;2023-12-20T09:43:14;6.40;99.90
14397;DHT22;50653;47.810;13.022;2023-12-20T09:45:42;6.40;99.90
14397;DHT22;50653;47.810;13.022;2023-12-20T09:48:11;6.40;99.90
14397;DHT22;50653;47.810;13.022;2023-12-20T09:50:37;6.50;99.90
14397;DHT22;50653;47.810;13.022;2023-12-20T09:53:05;6.50;99.90
14397;DHT22;50653;47.810;13.022;2023-12-20T09:55:36;6.50;99.90
14397;DHT22;50653;47.810;13.022;2023-12-20T09:58:01;6.50;99.90
14397;DHT22;50653;47.810;13.022;2023-12-20T10:00:27;6.60;99.90
14397;DHT22;50653;47.810;13.022;2023-12-20T10:02:57;6.50;99.90
14397;DHT22;50653;47.810;13.022;2023-12-20T10:05:28;6.60;99.90
14397;DHT22;50653;47.810;13.022;2023-12-20T10:07:53;6.60;99.90
14397;DHT22;50653;47.810;13.022;2023-12-20T10:10:19;6.60;99.90
14397;DHT22;50653;47.810;13.022;2023-12-20T10:13:04;6.70;99.90
14397;DHT22;50653;47.810;13.022;2023-12-20T10:15:31;6.60;99.90
14397;DHT22;50653;47.810;13.022;2023-12-20T10:17:57;6.60;99.90
14397;DHT22;50653;47.810;13.022;2023-12-20T10:20:23;6.60;99.90
14397;DHT22;50653;47.810;13.022;2023-12-20T10:22:49;6.60;99.90
14397;DHT22;50653;47.810;13.022;2023-12-20T10:25:15;6.60;99.90
14397;DHT22;50653;47.810;13.022;2023-12-20T10:27:41;6.60;99.90
14397;DHT22;50653;47.810;13.022;2023-12-20T10:30:07;6.60;99.90
14397;DHT22;50653;47.810;13.022;2023-12-20T10:32:32;6.60;99.90
14397;DHT22;50653;47.810;13.022;2023-12-20T10:34:58;6.70;99.90
14397;DHT22;50653;47.810;13.022;2023-12-20T10:37:25;6.70;99.90
14397;DHT22;50653;47.810;13.022;2023-12-20T10:39:52;6.60;99.90
14397;DHT22;50653;47.810;13.022;2023-12-20T10:42:22;6.60;99.90
14397;DHT22;50653;47.810;13.022;2023-12-20T10:44:49;6.60;99.90
14397;DHT22;50653;47.810;13.022;2023-12-20T10:47:16;6.60;99.90
14397;DHT22;50653;47.810;13.022;2023-12-20T10:49:43;6.60;99.90
14397;DHT22;50653;47.810;13.022;2023-12-20T10:52:11;6.60;99.90
14397;DHT22;50653;47.810;13.022;2023-12-20T10:54:39;6.60;99.90
14397;DHT22;50653;47.810;13.022;2023-12-20T10:57:06;6.70;99.90
14397;DHT22;50653;47.810;13.022;2023-12-20T10:59:33;6.60;99.90
14397;DHT22;50653;47.810;13.022;2023-12-20T11:02:03;6.60;99.90
14397;DHT22;50653;47.810;13.022;2023-12-20T11:05:02;6.60;99.90
14397;DHT22;50653;47.810;13.022;2023-12-20T11:07:33;6.60;99.90
14397;DHT22;50653;47.810;13.022;2023-12-20T11:10:13;6.50;99.90
14397;DHT22;50653;47.810;13.022;2023-12-20T11:12:48;6.60;99.90
14397;DHT22;50653;47.810;13.022;2023-12-20T11:15:16;6.60;99.90
14397;DHT22;50653;47.810;13.022;2023-12-20T11:17:45;6.60;99.90
14397;DHT22;50653;47.810;13.022;2023-12-20T11:20:12;6.60;99.90
14397;DHT22;50653;47.810;13.022;2023-12-20T11:22:38;6.60;99.90
14397;DHT22;50653;47.810;13.022;2023-12-20T11:25:11;6.60;99.90
14397;DHT22;50653;47.810;13.022;2023-12-20T11:27:41;6.60;99.90
14397;DHT22;50653;47.810;13.022;2023-12-20T11:30:07;6.60;99.90
14397;DHT22;50653;47.810;13.022;2023-12-20T11:32:35;6.60;99.90
14397;DHT22;50653;47.810;13.022;2023-12-20T11:35:18;6.60;99.90
14397;DHT22;50653;47.810;13.022;2023-12-20T11:37:45;6.60;99.90
14397;DHT22;50653;47.810;13.022;2023-12-20T11:40:17;6.60;99.90
14397;DHT22;50653;47.810;13.022;2023-12-20T11:42:44;6.60;99.90
14397;DHT22;50653;47.810;13.022;2023-12-20T11:45:15;6.60;99.90
14397;DHT22;50653;47.810;13.022;2023-12-20T11:47:46;6.60;99.90
14397;DHT22;50653;47.810;13.022;2023-12-20T11:50:12;6.70;99.90
14397;DHT22;50653;47.810;13.022;2023-12-20T11:52:37;6.60;99.90
14397;DHT22;50653;47.810;13.022;2023-12-20T11:55:04;6.60;99.90
14397;DHT22;50653;47.810;13.022;2023-12-20T11:57:32;6.60;99.90
14397;DHT22;50653;47.810;13.022;2023-12-20T11:59:58;6.70;99.90
14397;DHT22;50653;47.810;13.022;2023-12-20T12:02:23;6.60;99.90
14397;DHT22;50653;47.810;13.022;2023-12-20T12:04:49;6.60;99.90
14397;DHT22;50653;47.810;13.022;2023-12-20T12:07:16;6.60;99.90
14397;DHT22;50653;47.810;13.022;2023-12-20T12:09:43;6.60;99.90
14397;DHT22;50653;47.810;13.022;2023-12-20T12:12:10;6.60;99.90
14397;DHT22;50653;47.810;13.022;2023-12-20T12:14:35;6.50;99.90
14397;DHT22;50653;47.810;13.022;2023-12-20T12:17:03;6.50;99.90
14397;DHT22;50653;47.810;13.022;2023-12-20T12:19:29;6.50;99.90
14397;DHT22;50653;47.810;13.022;2023-12-20T12:22:08;6.50;99.90
14397;DHT22;50653;47.810;13.022;2023-12-20T12:24:38;6.60;99.90
14397;DHT22;50653;47.810;13.022;2023-12-20T12:27:06;6.60;99.90
14397;DHT22;50653;47.810;13.022;2023-12-20T12:29:33;6.60;99.90
14397;DHT22;50653;47.810;13.022;2023-12-20T12:31:59;6.60;99.90
14397;DHT22;50653;47.810;13.022;2023-12-20T12:34:27;6.50;99.90
14397;DHT22;50653;47.810;13.022;2023-12-20T12:36:53;6.50;99.90
14397;DHT22;50653;47.810;13.022;2023-12-20T12:39:19;6.50;99.90
14397;DHT22;50653;47.810;13.022;2023-12-20T12:41:45;6.60;99.90
14397;DHT22;50653;47.810;13.022;2023-12-20T12:44:11;6.60;99.90
14397;DHT22;50653;47.810;13.022;2023-12-20T12:46:37;6.50;99.90
14397;DHT22;50653;47.810;13.022;2023-12-20T12:49:02;6.60;99.90
14397;DHT22;50653;47.810;13.022;2023-12-20T12:51:28;6.60;99.90
14397;DHT22;50653;47.810;13.022;2023-12-20T12:53:54;6.60;99.90
14397;DHT22;50653;47.810;13.022;2023-12-20T12:56:19;6.60;99.90
14397;DHT22;50653;47.810;13.022;2023-12-20T12:58:46;6.60;99.90
14397;DHT22;50653;47.810;13.022;2023-12-20T13:01:12;6.60;99.90
14397;DHT22;50653;47.810;13.022;2023-12-20T13:03:38;6.60;99.90
14397;DHT22;50653;47.810;13.022;2023-12-20T13:06:04;6.60;99.90
14397;DHT22;50653;47.810;13.022;2023-12-20T13:08:31;6.70;99.90
14397;DHT22;50653;47.810;13.022;2023-12-20T13:10:57;6.70;99.90
14397;DHT22;50653;47.810;13.022;2023-12-20T13:13:26;6.70;99.90
14397;DHT22;50653;47.810;13.022;2023-12-20T13:15:52;6.70;99.90
14397;DHT22;50653;47.810;13.022;2023-12-20T13:18:21;6.70;99.90
14397;DHT22;50653;47.810;13.022;2023-12-20T13:20:47;6.60;99.90
14397;DHT22;50653;47.810;13.022;2023-12-20T13:23:13;6.70;99.90
14397;DHT22;50653;47.810;13.022;2023-12-20T13:25:40;6.70;99.90
14397;DHT22;50653;47.810;13.022;2023-12-20T13:28:05;6.70;99.90
14397;DHT22;50653;47.810;13.022;2023-12-20T13:30:31;6.80;99.90
14397;DHT22;50653;47.810;13.022;2023-12-20T13:32:57;6.80;99.90
14397;DHT22;50653;47.810;13.022;2023-12-20T13:35:23;6.70;99.90
14397;DHT22;50653;47.810;13.022;2023-12-20T13:37:48;6.70;99.90
14397;DHT22;50653;47.810;13.022;2023-12-20T13:40:14;6.70;99.90
14397;DHT22;50653;47.810;13.022;2023-12-20T13:42:40;6.80;99.90
14397;DHT22;50653;47.810;13.022;2023-12-20T13:45:07;6.80;99.90
14397;DHT22;50653;47.810;13.022;2023-12-20T13:47:33;6.80;99.90
14397;DHT22;50653;47.810;13.022;2023-12-20T13:49:59;6.80;99.90
14397;DHT22;50653;47.810;13.022;2023-12-20T13:52:24;6.80;99.90
14397;DHT22;50653;47.810;13.022;2023-12-20T13:54:50;6.80;99.90
14397;DHT22;50653;47.810;13.022;2023-12-20T13:57:16;6.80;99.90
14397;DHT22;50653;47.810;13.022;2023-12-20T13:59:41;6.80;99.90
14397;DHT22;50653;47.810;13.022;2023-12-20T14:02:07;6.80;99.90
14397;DHT22;50653;47.810;13.022;2023-12-20T14:04:33;6.80;99.90
14397;DHT22;50653;47.810;13.022;2023-12-20T14:06:58;6.70;99.90
14397;DHT22;50653;47.810;13.022;2023-12-20T14:09:24;6.60;99.90
14397;DHT22;50653;47.810;13.022;2023-12-20T14:11:50;6.60;99.90
14397;DHT22;50653;47.810;13.022;2023-12-20T14:14:16;6.60;99.90
14397;DHT22;50653;47.810;13.022;2023-12-20T14:16:41;6.50;99.90
14397;DHT22;50653;47.810;13.022;2023-12-20T14:19:11;6.50;99.90
14397;DHT22;50653;47.810;13.022;2023-12-20T14:21:36;6.40;99.90
14397;DHT22;50653;47.810;13.022;2023-12-20T14:24:02;6.40;99.90
14397;DHT22;50653;47.810;13.022;2023-12-20T14:26:30;6.50;99.90
14397;DHT22;50653;47.810;13.022;2023-12-20T14:28:56;6.50;99.90
14397;DHT22;50653;47.810;13.022;2023-12-20T14:31:22;6.40;99.90
14397;DHT22;50653;47.810;13.022;2023-12-20T14:33:50;6.40;99.90
14397;DHT22;50653;47.810;13.022;2023-12-20T14:36:19;6.40;99.90
14397;DHT22;50653;47.810;13.022;2023-12-20T14:38:45;6.30;99.90
14397;DHT22;50653;47.810;13.022;2023-12-20T14:41:12;6.40;99.90
14397;DHT22;50653;47.810;13.022;2023-12-20T14:43:38;6.40;99.90
14397;DHT22;50653;47.810;13.022;2023-12-20T14:46:03;6.40;99.90
14397;DHT22;50653;47.810;13.022;2023-12-20T14:48:31;6.40;99.90
14397;DHT22;50653;47.810;13.022;2023-12-20T14:50:57;6.40;99.90
14397;DHT22;50653;47.810;13.022;2023-12-20T14:53:24;6.40;99.90
14397;DHT22;50653;47.810;13.022;2023-12-20T14:55:50;6.50;99.90
14397;DHT22;50653;47.810;13.022;2023-12-20T14:58:16;6.50;99.90
14397;DHT22;50653;47.810;13.022;2023-12-20T15:00:42;6.50;99.90
14397;DHT22;50653;47.810;13.022;2023-12-20T15:03:09;6.50;99.90
14397;DHT22;50653;47.810;13.022;2023-12-20T15:05:35;6.50;99.90
14397;DHT22;50653;47.810;13.022;2023-12-20T15:08:01;6.60;99.90
14397;DHT22;50653;47.810;13.022;2023-12-20T15:10:27;6.60;99.90
14397;DHT22;50653;47.810;13.022;2023-12-20T15:12:53;6.60;99.90
14397;DHT22;50653;47.810;13.022;2023-12-20T15:15:19;6.60;99.90
14397;DHT22;50653;47.810;13.022;2023-12-20T15:17:45;6.60;99.90
14397;DHT22;50653;47.810;13.022;2023-12-20T15:20:11;6.60;99.90
14397;DHT22;50653;47.810;13.022;2023-12-20T15:22:37;6.60;99.90
14397;DHT22;50653;47.810;13.022;2023-12-20T15:25:03;6.60;99.90